createdAt,value
2018-11-22T12:16:44.743Z,23.00
2018-11-22T12:19:20.117Z,23.60
2018-11-22T12:21:55.733Z,22.22
2018-11-22T12:24:30.913Z,24.40
2018-11-22T12:27:06.339Z,24.82
2018-11-22T12:29:41.674Z,25.70
2018-11-22T12:32:22.743Z,23.70
2018-11-22T12:35:01.863Z,24.37
2018-11-22T12:37:43.169Z,24.60
2018-11-22T12:40:14.381Z,23.02
2018-11-22T12:42:49.946Z,24.23
2018-11-22T12:45:25.593Z,24.00
2018-11-22T12:48:01.247Z,23.75
2018-11-22T12:50:36.686Z,27.85
2018-11-22T12:53:12.355Z,22.37
2018-11-22T12:55:47.964Z,25.70
2018-11-22T12:58:23.653Z,24.95
2018-11-22T13:00:59.678Z,23.67
2018-11-22T13:03:35.457Z,24.02
2018-11-22T13:06:10.951Z,24.20
2018-11-22T13:08:46.578Z,23.60
2018-11-22T13:11:21.730Z,24.02
2018-11-22T13:13:57.342Z,24.25
2018-11-22T13:16:32.958Z,23.57
2018-11-22T13:19:08.647Z,24.82
2018-11-22T13:21:43.987Z,24.05
2018-11-22T13:24:19.853Z,25.00
2018-11-22T13:26:55.187Z,23.98
2018-11-22T13:29:30.830Z,24.35
2018-11-22T13:32:06.265Z,23.75
2018-11-22T13:34:41.855Z,23.20
2018-11-22T13:37:17.275Z,23.50
2018-11-22T13:39:53.014Z,24.70
2018-11-22T13:42:28.218Z,28.00
2018-11-22T13:45:09.817Z,25.62
2018-11-22T13:47:46.402Z,24.35
2018-11-22T13:50:26.677Z,23.90
2018-11-22T13:53:05.697Z,22.98
2018-11-22T13:55:41.489Z,23.77
2018-11-22T13:58:16.868Z,25.77
2018-11-22T14:00:52.654Z,25.02
2018-11-22T14:03:28.120Z,23.02
2018-11-22T14:06:03.653Z,24.12
2018-11-22T14:08:38.937Z,23.38
2018-11-22T14:11:15.337Z,24.43
2018-11-22T14:13:50.048Z,26.30
2018-11-22T14:16:25.830Z,23.27
2018-11-22T14:19:01.315Z,24.60
2018-11-22T14:21:36.928Z,25.85
2018-11-22T14:24:12.404Z,24.00
2018-11-22T14:26:47.957Z,26.95
2018-11-22T14:29:23.400Z,24.65
2018-11-22T14:31:58.910Z,23.92
2018-11-22T14:34:34.662Z,24.05
2018-11-22T14:37:10.426Z,24.05
2018-11-22T14:39:45.918Z,26.77
2018-11-22T14:42:21.414Z,25.52
2018-11-22T14:44:57.083Z,24.27
2018-11-22T14:47:32.730Z,24.52
2018-11-22T14:50:20.750Z,22.95
2018-11-22T14:53:03.577Z,22.80
2018-11-22T14:55:39.209Z,23.55
2018-11-22T14:58:14.713Z,24.70
2018-11-22T15:00:50.148Z,24.82
2018-11-22T15:03:25.666Z,24.10
2018-11-22T15:06:01.089Z,24.27
2018-11-22T15:08:36.756Z,25.45
2018-11-22T15:11:12.036Z,25.23
2018-11-22T15:13:47.671Z,24.30
2018-11-22T15:16:22.891Z,23.70
2018-11-22T15:18:58.433Z,25.00
2018-11-22T15:21:33.896Z,27.95
2018-11-22T15:24:09.663Z,24.65
2018-11-22T15:26:44.950Z,26.00
2018-11-22T15:29:20.537Z,27.25
2018-11-22T15:31:55.834Z,26.80
2018-11-22T15:34:31.422Z,25.90
2018-11-22T15:37:06.851Z,27.05
2018-11-22T15:39:42.902Z,26.07
2018-11-22T15:42:18.272Z,26.27
2018-11-22T15:44:54.265Z,26.42
2018-11-22T15:47:29.789Z,26.42
2018-11-22T15:50:08.179Z,27.58
2018-11-22T15:52:43.859Z,24.30
2018-11-22T15:55:21.039Z,24.35
2018-11-22T15:57:57.063Z,26.65
2018-11-22T16:00:34.183Z,24.57
2018-11-22T16:03:09.674Z,27.40
2018-11-22T16:05:45.458Z,26.42
2018-11-22T16:08:20.933Z,24.77
2018-11-22T16:10:56.543Z,26.77
2018-11-22T16:13:31.925Z,25.45
2018-11-22T16:16:07.985Z,25.85
2018-11-22T16:18:43.434Z,25.45
2018-11-22T16:21:19.062Z,25.92
2018-11-22T16:23:54.934Z,26.23
2018-11-22T16:26:30.555Z,26.82
2018-11-22T16:29:06.049Z,27.25
2018-11-22T16:31:41.850Z,26.60
2018-11-22T16:34:17.441Z,27.62
2018-11-22T16:36:53.157Z,25.08
2018-11-22T16:39:28.691Z,26.50
2018-11-22T16:42:04.245Z,27.80
2018-11-22T16:44:39.743Z,27.07
2018-11-22T16:47:15.653Z,27.20
2018-11-22T16:49:51.202Z,27.87
2018-11-22T16:52:26.854Z,28.77
2018-11-22T16:55:02.330Z,27.65
2018-11-22T16:57:37.766Z,27.48
2018-11-22T17:00:19.443Z,27.82
2018-11-22T17:02:56.313Z,25.35
2018-11-22T17:05:31.951Z,28.75
2018-11-22T17:08:08.370Z,26.85
2018-11-22T17:10:43.717Z,28.50
2018-11-22T17:13:19.157Z,27.37
2018-11-22T17:15:54.467Z,27.67
2018-11-22T17:18:29.897Z,29.65
2018-11-22T17:21:06.585Z,27.52
2018-11-22T17:23:42.118Z,25.65
2018-11-22T17:26:17.494Z,27.42
2018-11-22T17:28:53.178Z,26.20
2018-11-22T17:31:28.536Z,28.15
2018-11-22T17:34:04.210Z,29.07
2018-11-22T17:36:39.782Z,26.40
2018-11-22T17:39:15.614Z,24.72
2018-11-22T17:41:51.044Z,27.65
2018-11-22T17:44:26.721Z,25.43
2018-11-22T17:47:02.248Z,27.25
2018-11-22T17:49:39.458Z,25.25
2018-11-22T17:52:14.792Z,26.80
2018-11-22T17:54:50.435Z,24.45
2018-11-22T17:57:25.774Z,26.70
2018-11-22T18:00:01.306Z,26.52
2018-11-22T18:02:37.358Z,27.77
2018-11-22T18:05:13.036Z,26.10
2018-11-22T18:07:48.412Z,25.27
2018-11-22T18:10:25.358Z,25.52
2018-11-22T18:13:01.090Z,25.95
2018-11-22T18:16:10.141Z,25.43
2018-11-22T18:18:45.721Z,25.60
2018-11-22T18:21:21.258Z,28.07
2018-11-22T18:23:56.860Z,23.83
2018-11-22T18:26:32.484Z,25.43
2018-11-22T18:29:08.008Z,25.08
2018-11-22T18:31:43.511Z,23.92
2018-11-22T18:34:18.850Z,23.42
2018-11-22T18:36:54.426Z,25.10
2018-11-22T18:39:29.897Z,24.65
2018-11-22T18:42:05.951Z,26.15
2018-11-22T18:44:41.404Z,25.35
2018-11-22T18:47:17.750Z,25.23
2018-11-22T18:49:53.104Z,25.50
2018-11-22T18:52:28.935Z,25.57
2018-11-22T18:55:04.514Z,25.60
2018-11-22T18:57:40.750Z,26.00
2018-11-22T19:00:24.014Z,27.05
2018-11-22T19:03:02.438Z,25.43
2018-11-22T19:05:37.813Z,27.40
2018-11-22T19:08:13.485Z,25.45
2018-11-22T19:10:48.953Z,26.48
2018-11-22T19:13:24.491Z,25.43
2018-11-22T19:15:59.899Z,24.32
2018-11-22T19:18:35.572Z,24.30
2018-11-22T19:21:11.110Z,26.75
2018-11-22T19:23:46.794Z,24.63
2018-11-22T19:26:22.190Z,26.45
2018-11-22T19:28:57.670Z,26.93
2018-11-22T19:31:33.175Z,26.35
2018-11-22T19:34:08.976Z,27.52
2018-11-22T19:36:44.541Z,24.77
2018-11-22T19:39:20.262Z,26.00
2018-11-22T19:41:55.773Z,25.25
2018-11-22T19:44:32.175Z,25.15
2018-11-22T19:47:07.857Z,23.67
2018-11-22T19:49:43.476Z,25.65
2018-11-22T19:52:18.910Z,24.98
2018-11-22T19:54:54.477Z,25.52
2018-11-22T19:57:30.265Z,25.72
2018-11-22T20:00:08.439Z,27.15
2018-11-22T20:02:44.566Z,26.90
2018-11-22T20:05:21.267Z,25.25
2018-11-22T20:07:58.148Z,25.25
2018-11-22T20:10:35.230Z,24.12
2018-11-22T20:13:10.406Z,25.40
2018-11-22T20:15:45.921Z,24.75
2018-11-22T20:18:21.410Z,25.32
2018-11-22T20:20:57.011Z,26.45
2018-11-22T20:23:32.498Z,24.70
2018-11-22T20:26:08.204Z,28.40
2018-11-22T20:28:43.377Z,24.45
2018-11-22T20:31:18.933Z,26.70
2018-11-22T20:33:54.382Z,25.05
2018-11-22T20:36:30.093Z,25.25
2018-11-22T20:39:10.736Z,25.17
2018-11-22T20:41:47.018Z,26.75
2018-11-22T20:44:22.398Z,24.87
2018-11-22T20:46:58.127Z,27.02
2018-11-22T20:49:33.333Z,25.60
2018-11-22T20:52:08.859Z,25.08
2018-11-22T20:54:44.109Z,24.63
2018-11-22T20:57:19.840Z,25.82
2018-11-22T20:59:55.285Z,25.40
2018-11-22T21:02:30.789Z,27.02
2018-11-22T21:05:07.472Z,26.70
2018-11-22T21:07:43.551Z,25.50
2018-11-22T21:10:26.662Z,27.15
2018-11-22T21:13:02.402Z,26.95
2018-11-22T21:15:37.821Z,24.10
2018-11-22T21:18:13.603Z,27.30
2018-11-22T21:20:49.161Z,25.52
2018-11-22T21:23:24.798Z,26.00
2018-11-22T21:26:00.152Z,26.45
2018-11-22T21:28:35.790Z,27.77
2018-11-22T21:31:11.307Z,26.07
2018-11-22T21:33:46.794Z,28.40
2018-11-22T21:36:22.095Z,26.82
2018-11-22T21:38:57.871Z,28.60
2018-11-22T21:41:33.322Z,28.02
2018-11-22T21:44:09.484Z,25.80
2018-11-22T21:46:45.262Z,27.65
2018-11-22T21:49:21.056Z,27.82
2018-11-22T21:51:56.490Z,28.27
2018-11-22T21:54:32.109Z,26.25
2018-11-22T21:57:07.789Z,25.57
2018-11-22T21:59:43.488Z,28.83
2018-11-22T22:02:18.828Z,27.62
2018-11-22T22:04:54.303Z,28.77
2018-11-22T22:07:29.792Z,29.15
2018-11-22T22:10:05.466Z,28.52
2018-11-22T22:12:41.503Z,26.97
2018-11-22T22:15:18.823Z,26.85
2018-11-22T22:17:54.253Z,27.05
2018-11-22T22:20:31.743Z,27.93
2018-11-22T22:23:13.250Z,25.27
2018-11-22T22:25:42.846Z,27.85
2018-11-22T22:28:18.249Z,27.90
2018-11-22T22:30:53.845Z,28.55
2018-11-22T22:33:29.306Z,28.87
2018-11-22T22:36:05.550Z,27.13
2018-11-22T22:38:40.970Z,30.00
2018-11-22T22:41:16.446Z,28.10
2018-11-22T22:43:51.782Z,28.98
2018-11-22T22:46:27.438Z,28.23
2018-11-22T22:49:02.726Z,27.25
2018-11-22T22:51:38.540Z,28.57
2018-11-22T22:54:14.034Z,28.98
2018-11-22T22:56:50.047Z,30.08
2018-11-22T22:59:25.341Z,29.30
2018-11-22T23:02:00.935Z,29.98
2018-11-22T23:04:36.398Z,28.07
2018-11-22T23:07:12.022Z,29.65
2018-11-22T23:09:47.242Z,30.77
2018-11-22T23:12:22.791Z,29.45
2018-11-22T23:14:58.302Z,29.72
2018-11-22T23:17:33.805Z,31.37
2018-11-22T23:20:13.370Z,30.92
2018-11-22T23:22:49.413Z,29.60
2018-11-22T23:25:25.914Z,36.45
2018-11-22T23:28:01.523Z,29.67
2018-11-22T23:30:37.030Z,32.05
2018-11-22T23:33:12.514Z,31.80
2018-11-22T23:35:48.076Z,29.63
2018-11-22T23:38:23.611Z,29.55
2018-11-22T23:40:58.877Z,29.70
2018-11-22T23:43:34.497Z,30.52
2018-11-22T23:46:10.163Z,31.97
2018-11-22T23:48:45.698Z,30.37
2018-11-22T23:51:20.902Z,31.10
2018-11-22T23:53:56.366Z,30.52
2018-11-22T23:56:31.694Z,32.10
2018-11-22T23:59:07.227Z,31.82
